createdAt,value
2024-05-09T00:00:31.670Z,78.86
2024-05-09T00:01:40.737Z,79.13
2024-05-09T00:02:42.885Z,79.08
2024-05-09T00:03:45.821Z,79.15
2024-05-09T00:04:48.038Z,79.32
2024-05-09T00:05:50.124Z,79.22
2024-05-09T00:06:52.189Z,79.34
2024-05-09T00:07:54.281Z,79.20
2024-05-09T00:08:56.337Z,79.15
2024-05-09T00:09:58.406Z,79.54
2024-05-09T00:11:00.618Z,79.61
2024-05-09T00:12:03.481Z,79.36
2024-05-09T00:13:06.674Z,79.15
2024-05-09T00:14:09.015Z,79.05
2024-05-09T00:15:11.075Z,79.60
2024-05-09T00:16:13.140Z,79.66
2024-05-09T00:17:15.406Z,79.86
2024-05-09T00:18:17.816Z,79.52
2024-05-09T00:19:20.574Z,79.26
2024-05-09T00:20:28.543Z,79.14
2024-05-09T00:21:42.332Z,79.45
2024-05-09T00:22:44.514Z,79.33
2024-05-09T00:23:46.589Z,79.42
2024-05-09T00:24:48.658Z,79.85
2024-05-09T00:25:50.766Z,79.44
2024-05-09T00:26:52.841Z,79.55
2024-05-09T00:27:54.913Z,79.41
2024-05-09T00:28:57.023Z,80.42
2024-05-09T00:29:59.115Z,80.03
2024-05-09T00:31:02.211Z,79.72
2024-05-09T00:32:04.932Z,79.94
2024-05-09T00:33:08.678Z,80.13
2024-05-09T00:34:12.358Z,80.36
2024-05-09T00:35:14.511Z,81.03
2024-05-09T00:36:16.591Z,80.82
2024-05-09T00:37:19.266Z,80.75
2024-05-09T00:38:21.497Z,80.58
2024-05-09T00:39:23.580Z,80.74
2024-05-09T00:40:35.700Z,80.73
2024-05-09T00:41:41.805Z,81.10
2024-05-09T00:42:45.902Z,81.27
2024-05-09T00:43:48.036Z,81.16
2024-05-09T00:44:50.099Z,80.97
2024-05-09T00:45:53.813Z,81.12
2024-05-09T00:46:56.506Z,81.03
2024-05-09T00:48:01.458Z,81.00
2024-05-09T00:49:04.391Z,81.10
2024-05-09T00:50:10.164Z,80.64
2024-05-09T00:51:17.680Z,80.66
2024-05-09T00:52:20.630Z,80.98
2024-05-09T00:53:23.355Z,80.87
2024-05-09T00:54:25.484Z,80.52
2024-05-09T00:55:27.766Z,80.26
2024-05-09T00:56:29.876Z,80.35
2024-05-09T00:57:31.970Z,80.52
2024-05-09T00:58:34.018Z,80.55
2024-05-09T00:59:36.233Z,80.33
2024-05-09T01:00:40.945Z,80.67
2024-05-09T01:01:44.865Z,80.81
2024-05-09T01:02:47.179Z,80.66
2024-05-09T01:03:51.285Z,80.60
2024-05-09T01:04:54.313Z,80.87
2024-05-09T01:05:56.592Z,80.77
2024-05-09T01:06:58.707Z,81.01
2024-05-09T01:08:01.493Z,80.61
2024-05-09T01:09:03.580Z,81.08
2024-05-09T01:10:11.690Z,80.81
2024-05-09T01:11:19.862Z,81.15
2024-05-09T01:12:23.583Z,81.08
2024-05-09T01:13:25.702Z,81.07
2024-05-09T01:14:27.798Z,80.81
2024-05-09T01:15:29.976Z,80.93
2024-05-09T01:16:32.290Z,80.61
2024-05-09T01:17:34.944Z,80.49
2024-05-09T01:18:37.185Z,80.70
2024-05-09T01:19:39.481Z,80.69
2024-05-09T01:20:44.151Z,80.79
2024-05-09T01:21:47.390Z,80.61
2024-05-09T01:22:51.699Z,80.81
2024-05-09T01:23:53.755Z,80.91
2024-05-09T01:24:55.821Z,81.01
2024-05-09T01:25:57.946Z,81.61
2024-05-09T01:27:00.019Z,81.32
2024-05-09T01:28:02.088Z,81.03
2024-05-09T01:29:04.188Z,81.37
2024-05-09T01:30:09.270Z,80.91
2024-05-09T01:31:14.722Z,81.03
2024-05-09T01:32:16.871Z,80.86
2024-05-09T01:33:19.069Z,81.24
2024-05-09T01:34:21.351Z,81.64
2024-05-09T01:35:23.576Z,82.05
2024-05-09T01:36:25.741Z,81.32
2024-05-09T01:37:27.804Z,81.36
2024-05-09T01:38:30.303Z,81.22
2024-05-09T01:39:32.445Z,80.86
2024-05-09T01:40:38.452Z,80.77
2024-05-09T01:41:42.128Z,80.73
2024-05-09T01:42:44.192Z,80.86
2024-05-09T01:43:46.336Z,80.96
2024-05-09T01:44:48.429Z,80.70
2024-05-09T01:45:50.460Z,80.76
2024-05-09T01:46:52.571Z,80.83
2024-05-09T01:47:54.862Z,80.80
2024-05-09T01:48:57.087Z,80.58
2024-05-09T01:49:59.216Z,80.62
2024-05-09T01:51:01.468Z,80.26
2024-05-09T01:52:03.702Z,80.19
2024-05-09T01:53:05.928Z,80.10
2024-05-09T01:54:08.066Z,80.19
2024-05-09T01:55:10.117Z,79.89
2024-05-09T01:56:12.282Z,80.04
2024-05-09T01:57:15.868Z,80.36
2024-05-09T01:58:18.097Z,80.21
2024-05-09T01:59:21.154Z,80.27
2024-05-09T02:00:34.492Z,80.24
2024-05-09T02:01:56.124Z,80.40
2024-05-09T02:02:59.901Z,80.57
2024-05-09T02:04:02.620Z,80.76
2024-05-09T02:05:05.320Z,80.58
2024-05-09T02:06:07.587Z,80.56
2024-05-09T02:07:09.665Z,80.49
2024-05-09T02:08:16.621Z,80.61
2024-05-09T02:09:18.874Z,80.53
2024-05-09T02:10:26.358Z,80.73
2024-05-09T02:11:42.214Z,80.29
2024-05-09T02:12:44.337Z,80.01
2024-05-09T02:13:46.446Z,78.73
2024-05-09T02:14:48.511Z,77.75
2024-05-09T02:15:51.508Z,78.75
2024-05-09T02:16:53.601Z,78.39
2024-05-09T02:17:55.853Z,78.86
2024-05-09T02:18:58.140Z,78.54
2024-05-09T02:20:00.353Z,78.11
2024-05-09T02:21:02.555Z,77.38
2024-05-09T02:22:04.714Z,78.15
2024-05-09T02:23:07.691Z,77.92
2024-05-09T02:24:09.806Z,78.29
2024-05-09T02:25:11.849Z,78.48
2024-05-09T02:26:13.934Z,78.76
2024-05-09T02:27:16.007Z,78.30
2024-05-09T02:28:19.862Z,78.17
2024-05-09T02:29:22.039Z,77.57
2024-05-09T02:30:31.131Z,77.45
2024-05-09T02:31:40.996Z,77.91
2024-05-09T02:32:43.209Z,77.38
2024-05-09T02:33:45.943Z,77.48
2024-05-09T02:34:48.146Z,77.70
2024-05-09T02:35:50.325Z,76.75
2024-05-09T02:36:54.953Z,77.12
2024-05-09T02:37:57.059Z,76.10
2024-05-09T02:38:59.089Z,75.59
2024-05-09T02:40:01.146Z,75.64
2024-05-09T02:41:03.365Z,74.99
2024-05-09T02:42:05.634Z,75.26
2024-05-09T02:43:11.797Z,75.32
2024-05-09T02:44:14.686Z,75.21
2024-05-09T02:45:16.771Z,74.33
2024-05-09T02:46:18.825Z,74.32
2024-05-09T02:47:21.079Z,74.66
2024-05-09T02:48:23.567Z,74.46
2024-05-09T02:49:25.875Z,75.01
2024-05-09T02:50:34.586Z,74.11
2024-05-09T02:51:40.857Z,74.85
2024-05-09T02:52:42.934Z,75.83
2024-05-09T02:53:45.083Z,75.69
2024-05-09T02:54:47.140Z,75.36
2024-05-09T02:55:49.278Z,75.33
2024-05-09T02:56:51.341Z,74.26
2024-05-09T02:57:53.419Z,74.84
2024-05-09T02:58:55.737Z,74.23
2024-05-09T02:59:57.802Z,74.62
2024-05-09T03:01:00.926Z,74.55
2024-05-09T03:02:03.154Z,74.73
2024-05-09T03:03:06.948Z,74.78
2024-05-09T03:04:09.463Z,74.26
2024-05-09T03:05:11.799Z,75.14
2024-05-09T03:06:13.904Z,73.82
2024-05-09T03:07:17.239Z,74.02
2024-05-09T03:08:20.462Z,74.74
2024-05-09T03:09:23.015Z,75.36
2024-05-09T03:10:28.730Z,75.56
2024-05-09T03:11:34.840Z,74.91
2024-05-09T03:12:39.224Z,74.44
2024-05-09T03:13:41.445Z,75.85
2024-05-09T03:14:43.484Z,75.97
2024-05-09T03:15:45.682Z,73.93
2024-05-09T03:16:47.769Z,73.95
2024-05-09T03:17:50.063Z,74.67
2024-05-09T03:18:53.578Z,75.37
2024-05-09T03:19:55.691Z,75.43
2024-05-09T03:20:57.998Z,74.89
2024-05-09T03:22:00.055Z,75.09
2024-05-09T03:23:03.704Z,75.02
2024-05-09T03:24:06.450Z,75.28
2024-05-09T03:25:08.531Z,76.09
2024-05-09T03:26:12.136Z,76.02
2024-05-09T03:27:14.256Z,76.22
2024-05-09T03:28:16.354Z,76.51
2024-05-09T03:29:18.470Z,76.50
2024-05-09T03:30:30.758Z,76.85
2024-05-09T03:31:42.599Z,77.16
2024-05-09T03:32:44.816Z,76.88
2024-05-09T03:33:47.077Z,76.94
2024-05-09T03:34:49.279Z,75.96
2024-05-09T03:35:51.305Z,75.37
2024-05-09T03:36:53.379Z,74.98
2024-05-09T03:37:55.475Z,73.23
2024-05-09T03:38:57.505Z,74.77
2024-05-09T03:40:00.774Z,75.65
2024-05-09T03:41:02.869Z,76.01
2024-05-09T03:42:04.912Z,76.90
2024-05-09T03:43:06.981Z,77.19
2024-05-09T03:44:09.313Z,77.15
2024-05-09T03:45:11.351Z,76.98
2024-05-09T03:46:13.422Z,77.04
2024-05-09T03:47:15.614Z,76.47
2024-05-09T03:48:18.114Z,76.42
2024-05-09T03:49:21.389Z,76.69
2024-05-09T03:50:30.106Z,76.55
2024-05-09T03:51:36.064Z,76.32
2024-05-09T03:52:38.135Z,75.90
2024-05-09T03:53:40.407Z,76.05
2024-05-09T03:54:48.052Z,76.81
2024-05-09T03:55:50.143Z,77.46
2024-05-09T03:56:53.189Z,77.67
2024-05-09T03:57:55.650Z,77.34
2024-05-09T03:58:57.956Z,77.86
2024-05-09T04:00:00.035Z,77.73
2024-05-09T04:01:02.782Z,77.21
2024-05-09T04:02:05.386Z,77.11
2024-05-09T04:03:09.976Z,76.81
2024-05-09T04:04:14.131Z,76.76
2024-05-09T04:05:16.319Z,77.26
2024-05-09T04:06:25.337Z,77.20
2024-05-09T04:07:27.361Z,75.79
2024-05-09T04:08:29.524Z,75.22
2024-05-09T04:09:31.624Z,75.77
2024-05-09T04:10:35.026Z,76.67
2024-05-09T04:11:37.774Z,76.65
2024-05-09T04:12:39.973Z,76.72
2024-05-09T04:13:42.232Z,77.31
2024-05-09T04:14:44.350Z,77.53
2024-05-09T04:15:46.420Z,76.40
2024-05-09T04:16:48.528Z,76.40
2024-05-09T04:17:50.792Z,76.73
2024-05-09T04:18:53.330Z,77.81
2024-05-09T04:19:55.558Z,76.91
2024-05-09T04:20:58.277Z,78.29
2024-05-09T04:22:00.378Z,78.86
2024-05-09T04:23:02.499Z,78.30
2024-05-09T04:24:04.736Z,77.70
2024-05-09T04:25:06.807Z,76.18
2024-05-09T04:26:08.948Z,74.15
2024-05-09T04:27:11.022Z,71.57
2024-05-09T04:28:13.270Z,70.38
2024-05-09T04:29:15.378Z,72.58
2024-05-09T04:30:25.729Z,67.79
2024-05-09T04:31:35.965Z,71.40
2024-05-09T04:32:38.179Z,70.44
2024-05-09T04:33:40.403Z,69.29
2024-05-09T04:34:42.538Z,69.38
2024-05-09T04:35:45.222Z,70.28
2024-05-09T04:36:47.528Z,72.53
2024-05-09T04:37:49.675Z,72.58
2024-05-09T04:38:51.758Z,73.14
2024-05-09T04:39:53.965Z,71.97
2024-05-09T04:40:56.173Z,72.87
2024-05-09T04:41:58.262Z,71.09
2024-05-09T04:43:00.527Z,71.75
2024-05-09T04:44:02.630Z,73.57
2024-05-09T04:45:04.862Z,73.84
2024-05-09T04:46:06.941Z,73.88
2024-05-09T04:47:09.014Z,73.33
2024-05-09T04:48:11.385Z,72.89
2024-05-09T04:49:13.935Z,72.11
2024-05-09T04:50:24.657Z,72.00
2024-05-09T04:51:31.623Z,71.67
2024-05-09T04:52:33.674Z,71.93
2024-05-09T04:53:35.995Z,71.27
2024-05-09T04:54:38.098Z,70.09
2024-05-09T04:55:40.729Z,70.95
2024-05-09T04:56:42.939Z,71.77
2024-05-09T04:57:44.998Z,69.01
2024-05-09T04:58:47.088Z,69.35
2024-05-09T04:59:49.132Z,69.75
2024-05-09T05:00:51.268Z,71.26
2024-05-09T05:01:53.525Z,70.47
2024-05-09T05:02:55.855Z,69.78
2024-05-09T05:03:58.458Z,70.68
2024-05-09T05:05:00.981Z,70.21
2024-05-09T05:06:03.195Z,69.46
2024-05-09T05:07:05.469Z,66.75
2024-05-09T05:08:11.264Z,64.25
2024-05-09T05:09:13.386Z,63.11
2024-05-09T05:10:21.543Z,62.94
2024-05-09T05:11:30.964Z,67.83
2024-05-09T05:12:51.488Z,69.37
2024-05-09T05:13:53.597Z,67.22
2024-05-09T05:14:56.556Z,68.29
2024-05-09T05:15:59.886Z,68.02
2024-05-09T05:17:02.026Z,66.43
2024-05-09T05:18:05.516Z,68.58
2024-05-09T05:19:10.837Z,65.71
2024-05-09T05:20:17.933Z,67.27
2024-05-09T05:21:26.363Z,66.59
2024-05-09T05:22:28.486Z,66.61
2024-05-09T05:23:30.620Z,67.67
2024-05-09T05:24:32.746Z,68.59
2024-05-09T05:25:34.777Z,69.81
2024-05-09T05:26:37.967Z,69.72
2024-05-09T05:27:40.026Z,68.71
2024-05-09T05:28:42.086Z,69.56
2024-05-09T05:29:44.204Z,68.19
2024-05-09T05:30:46.443Z,66.93
2024-05-09T05:31:48.576Z,67.83
2024-05-09T05:32:50.974Z,68.64
2024-05-09T05:33:53.248Z,68.82
2024-05-09T05:34:55.404Z,68.55
2024-05-09T05:35:57.504Z,67.95
2024-05-09T05:36:59.544Z,68.91
2024-05-09T05:38:05.794Z,68.77
2024-05-09T05:39:07.891Z,65.66
2024-05-09T05:40:14.612Z,66.23
2024-05-09T05:41:19.556Z,60.04
2024-05-09T05:42:21.632Z,58.91
2024-05-09T05:43:23.745Z,58.38
2024-05-09T05:44:25.870Z,58.59
2024-05-09T05:45:27.933Z,56.22
2024-05-09T05:46:29.967Z,59.34
2024-05-09T05:47:32.111Z,60.86
2024-05-09T05:48:34.476Z,59.74
2024-05-09T05:49:36.648Z,63.44
2024-05-09T05:50:39.057Z,61.56
2024-05-09T05:51:41.185Z,61.46
2024-05-09T05:52:43.248Z,60.82
2024-05-09T05:53:45.360Z,61.44
2024-05-09T05:54:47.553Z,62.06
2024-05-09T05:55:49.681Z,62.50
2024-05-09T05:56:51.735Z,59.76
2024-05-09T05:57:54.514Z,58.72
2024-05-09T05:58:56.573Z,56.76
2024-05-09T05:59:58.623Z,61.63
2024-05-09T06:01:00.744Z,58.69
2024-05-09T06:02:03.097Z,59.99
2024-05-09T06:03:05.706Z,61.88
2024-05-09T06:04:08.066Z,64.03
2024-05-09T06:05:10.240Z,61.04
2024-05-09T06:06:12.526Z,57.03
2024-05-09T06:07:14.629Z,59.67
2024-05-09T06:08:16.795Z,56.86
2024-05-09T06:09:18.874Z,62.06
2024-05-09T06:10:25.799Z,58.59
2024-05-09T06:11:32.396Z,56.36
2024-05-09T06:12:34.558Z,53.02
2024-05-09T06:13:41.715Z,56.66
2024-05-09T06:14:43.793Z,55.75
2024-05-09T06:15:45.846Z,59.42
2024-05-09T06:16:47.975Z,60.44
2024-05-09T06:17:50.155Z,60.12
2024-05-09T06:18:52.471Z,58.78
2024-05-09T06:19:54.737Z,58.24
2024-05-09T06:20:56.890Z,60.70
2024-05-09T06:21:58.946Z,61.16
2024-05-09T06:23:01.900Z,61.32
2024-05-09T06:24:06.670Z,57.95
2024-05-09T06:25:08.847Z,58.54
2024-05-09T06:26:10.982Z,55.76
2024-05-09T06:27:13.077Z,55.91
2024-05-09T06:28:15.134Z,58.14
2024-05-09T06:29:17.226Z,59.81
2024-05-09T06:30:25.602Z,60.76
2024-05-09T06:31:38.834Z,61.07
2024-05-09T06:32:43.732Z,57.60
2024-05-09T06:33:45.976Z,60.69
2024-05-09T06:34:48.403Z,60.32
2024-05-09T06:35:53.190Z,54.84
2024-05-09T06:36:55.252Z,52.70
2024-05-09T06:37:57.323Z,55.71
2024-05-09T06:38:59.408Z,57.87
2024-05-09T06:40:01.588Z,59.20
2024-05-09T06:41:04.883Z,54.95
2024-05-09T06:42:07.389Z,55.99
2024-05-09T06:43:13.669Z,57.83
2024-05-09T06:44:15.837Z,58.90
2024-05-09T06:45:17.961Z,58.57
2024-05-09T06:46:20.048Z,55.75
2024-05-09T06:47:22.305Z,55.93
2024-05-09T06:48:24.547Z,55.23
2024-05-09T06:49:28.995Z,57.65
2024-05-09T06:50:35.863Z,55.73
2024-05-09T06:51:40.345Z,53.38
2024-05-09T06:52:46.089Z,49.01
2024-05-09T06:53:48.216Z,49.75
2024-05-09T06:54:50.259Z,47.20
2024-05-09T06:55:52.519Z,50.12
2024-05-09T06:56:54.670Z,51.15
2024-05-09T06:57:56.752Z,48.21
2024-05-09T06:58:58.846Z,50.32
2024-05-09T07:00:01.125Z,53.29
2024-05-09T07:01:03.524Z,51.13
2024-05-09T07:02:05.806Z,48.97
2024-05-09T07:03:13.414Z,47.80
2024-05-09T07:04:17.862Z,49.48
2024-05-09T07:05:20.454Z,52.77
2024-05-09T07:06:22.770Z,52.85
2024-05-09T07:07:25.119Z,49.68
2024-05-09T07:08:27.270Z,47.00
2024-05-09T07:09:29.381Z,48.84
2024-05-09T07:10:35.218Z,47.49
2024-05-09T07:11:38.407Z,49.32
2024-05-09T07:12:40.540Z,49.82
2024-05-09T07:13:44.207Z,48.65
2024-05-09T07:14:46.348Z,46.97
2024-05-09T07:15:48.456Z,47.38
2024-05-09T07:16:50.714Z,46.32
2024-05-09T07:17:53.018Z,46.21
2024-05-09T07:18:55.492Z,45.42
2024-05-09T07:19:58.955Z,46.85
2024-05-09T07:21:01.129Z,46.65
2024-05-09T07:22:03.370Z,48.44
2024-05-09T07:23:08.230Z,46.83
2024-05-09T07:24:10.362Z,45.56
2024-05-09T07:25:12.501Z,44.49
2024-05-09T07:26:16.002Z,47.00
2024-05-09T07:27:18.421Z,47.63
2024-05-09T07:28:21.608Z,48.77
2024-05-09T07:29:23.765Z,45.60
2024-05-09T07:30:30.908Z,41.14
2024-05-09T07:31:36.124Z,42.24
2024-05-09T07:32:38.478Z,39.99
2024-05-09T07:33:41.252Z,40.65
2024-05-09T07:34:43.484Z,41.54
2024-05-09T07:35:45.673Z,41.96
2024-05-09T07:36:49.526Z,42.42
2024-05-09T07:37:51.734Z,39.54
2024-05-09T07:38:55.295Z,40.72
2024-05-09T07:39:57.439Z,41.78
2024-05-09T07:40:59.641Z,40.45
2024-05-09T07:42:03.627Z,40.99
2024-05-09T07:43:07.041Z,39.72
2024-05-09T07:44:09.185Z,41.40
2024-05-09T07:45:29.631Z,40.63
2024-05-09T07:48:58.127Z,44.26
2024-05-09T07:50:35.975Z,40.52
2024-05-09T07:53:33.125Z,43.65
2024-05-09T07:53:58.437Z,37.60
2024-05-09T07:55:03.014Z,38.26
2024-05-09T07:56:05.585Z,40.37
2024-05-09T07:57:07.797Z,40.68
2024-05-09T07:58:09.968Z,39.89
2024-05-09T07:59:12.111Z,37.02
2024-05-09T08:00:17.519Z,39.14
2024-05-09T08:01:24.864Z,40.45
2024-05-09T08:02:27.555Z,38.09
2024-05-09T08:03:30.261Z,35.89
2024-05-09T08:04:32.575Z,37.47
2024-05-09T08:05:34.933Z,34.93
2024-05-09T08:06:37.206Z,34.43
2024-05-09T08:07:39.350Z,33.24
2024-05-09T08:08:41.493Z,32.06
2024-05-09T08:09:44.941Z,33.72
2024-05-09T08:10:47.160Z,33.43
2024-05-09T08:11:51.547Z,32.86
2024-05-09T08:12:53.708Z,33.73
2024-05-09T08:13:55.839Z,35.56
2024-05-09T08:14:57.957Z,33.78
2024-05-09T08:16:00.439Z,32.06
2024-05-09T08:17:03.531Z,30.09
2024-05-09T08:18:08.976Z,29.28
2024-05-09T08:19:11.250Z,28.89
2024-05-09T08:20:22.546Z,29.62
2024-05-09T08:21:29.070Z,30.00
2024-05-09T08:22:31.571Z,29.32
2024-05-09T08:23:33.742Z,28.04
2024-05-09T08:24:36.934Z,28.20
2024-05-09T08:25:39.069Z,28.82
2024-05-09T08:26:41.206Z,28.71
2024-05-09T08:27:43.410Z,27.65
2024-05-09T08:28:45.522Z,27.91
2024-05-09T08:29:47.772Z,27.60
2024-05-09T08:30:50.090Z,27.93
2024-05-09T08:31:57.689Z,27.68
2024-05-09T08:32:59.990Z,27.59
2024-05-09T08:34:02.329Z,27.61
2024-05-09T08:35:04.977Z,29.01
2024-05-09T08:36:07.141Z,27.65
2024-05-09T08:37:15.495Z,25.82
2024-05-09T08:38:22.335Z,26.62
2024-05-09T08:39:24.463Z,25.69
2024-05-09T08:40:33.881Z,24.84
2024-05-09T08:41:41.068Z,24.60
2024-05-09T08:42:51.202Z,26.20
2024-05-09T08:43:53.461Z,26.87
2024-05-09T08:44:55.597Z,26.66
2024-05-09T08:45:58.548Z,25.26
2024-05-09T08:47:02.204Z,25.60
2024-05-09T08:48:07.252Z,25.17
2024-05-09T08:49:10.229Z,26.60
2024-05-09T08:50:24.342Z,26.23
2024-05-09T08:51:34.481Z,24.86
2024-05-09T08:52:36.663Z,25.83
2024-05-09T08:53:39.062Z,25.63
2024-05-09T08:54:41.276Z,25.79
2024-05-09T08:55:45.298Z,24.74
2024-05-09T08:56:48.576Z,25.16
2024-05-09T08:57:51.502Z,25.72
2024-05-09T08:58:56.607Z,25.95
2024-05-09T09:00:03.445Z,25.90
2024-05-09T09:01:07.118Z,25.30
2024-05-09T09:02:12.657Z,23.90
2024-05-09T09:03:17.079Z,23.67
2024-05-09T09:04:20.290Z,24.46
2024-05-09T09:05:26.086Z,24.90
2024-05-09T09:06:29.040Z,23.24
2024-05-09T09:07:32.680Z,24.14
2024-05-09T09:08:37.971Z,24.64
2024-05-09T09:09:42.398Z,23.30
2024-05-09T09:10:46.570Z,23.49
2024-05-09T09:11:48.721Z,23.36
2024-05-09T09:12:57.480Z,22.63
2024-05-09T09:13:59.600Z,22.56
2024-05-09T09:15:01.789Z,22.41
2024-05-09T09:16:04.363Z,22.83
2024-05-09T09:17:16.367Z,20.59
2024-05-09T09:18:19.301Z,21.34
2024-05-09T09:19:22.381Z,20.33
2024-05-09T09:20:33.265Z,21.48
2024-05-09T09:21:38.301Z,22.83
2024-05-09T09:22:40.430Z,22.16
2024-05-09T09:23:42.624Z,22.19
2024-05-09T09:24:44.786Z,23.41
2024-05-09T09:25:47.023Z,22.45
2024-05-09T09:26:49.756Z,19.98
2024-05-09T09:27:51.897Z,19.65
2024-05-09T09:28:58.898Z,19.93
2024-05-09T09:30:01.117Z,19.98
2024-05-09T09:31:03.573Z,18.91
2024-05-09T09:32:07.448Z,18.86
2024-05-09T09:33:10.568Z,19.22
2024-05-09T09:34:13.076Z,19.24
2024-05-09T09:35:16.292Z,19.32
2024-05-09T09:36:18.575Z,18.64
2024-05-09T09:37:22.499Z,19.32
2024-05-09T09:38:29.051Z,19.69
2024-05-09T09:39:32.914Z,19.44
2024-05-09T09:40:40.466Z,20.81
2024-05-09T09:41:46.938Z,20.46
2024-05-09T09:42:49.312Z,18.81
2024-05-09T09:43:52.646Z,20.08
2024-05-09T09:45:04.218Z,19.45
2024-05-09T09:46:10.810Z,19.08
2024-05-09T09:47:15.763Z,19.99
2024-05-09T09:48:19.305Z,20.45
2024-05-09T09:49:29.493Z,19.87
2024-05-09T09:50:35.097Z,19.21
2024-05-09T09:51:42.423Z,19.54
2024-05-09T09:52:44.996Z,20.52
2024-05-09T09:53:48.312Z,19.18
2024-05-09T09:54:53.081Z,19.97
2024-05-09T09:55:55.669Z,19.43
2024-05-09T09:56:58.727Z,20.23
2024-05-09T09:58:03.083Z,19.68
2024-05-09T09:59:05.969Z,19.58
2024-05-09T10:00:12.038Z,18.86
2024-05-09T10:01:19.433Z,19.12
2024-05-09T10:02:21.958Z,21.19
2024-05-09T10:03:24.416Z,19.53
2024-05-09T10:04:28.161Z,20.05
2024-05-09T10:05:32.213Z,19.06
2024-05-09T10:06:40.061Z,19.64
2024-05-09T10:07:42.834Z,19.59
2024-05-09T10:08:46.743Z,19.61
2024-05-09T10:09:48.988Z,18.53
2024-05-09T10:10:51.252Z,19.06
2024-05-09T10:11:59.755Z,20.92
2024-05-09T10:13:06.711Z,19.73
2024-05-09T10:14:09.085Z,19.42
2024-05-09T10:15:11.198Z,19.49
2024-05-09T10:16:20.320Z,20.61
2024-05-09T10:17:22.524Z,19.83
2024-05-09T10:18:35.751Z,18.45
2024-05-09T10:19:37.979Z,18.25
2024-05-09T10:20:43.481Z,18.62
2024-05-09T10:21:46.063Z,18.93
2024-05-09T10:22:49.351Z,19.76
2024-05-09T10:24:07.599Z,19.22
2024-05-09T10:25:11.481Z,18.92
2024-05-09T10:26:13.607Z,19.83
2024-05-09T10:27:24.221Z,19.25
2024-05-09T10:28:30.760Z,20.80
2024-05-09T10:29:32.945Z,20.28
2024-05-09T10:30:36.410Z,22.23
2024-05-09T10:31:46.249Z,20.72
2024-05-09T10:32:52.470Z,21.18
2024-05-09T10:33:55.187Z,21.68
2024-05-09T10:35:05.877Z,21.61
2024-05-09T10:36:18.294Z,21.92
2024-05-09T10:37:21.156Z,21.85
2024-05-09T10:38:23.805Z,21.86
2024-05-09T10:39:26.328Z,22.20
2024-05-09T10:40:31.601Z,22.48
2024-05-09T10:41:36.884Z,22.16
2024-05-09T10:42:40.549Z,21.58
2024-05-09T10:43:42.925Z,20.61
2024-05-09T10:44:46.215Z,20.24
2024-05-09T10:45:48.627Z,20.26
2024-05-09T10:46:53.385Z,20.88
2024-05-09T10:47:55.808Z,20.26
2024-05-09T10:48:58.031Z,22.04
2024-05-09T10:50:00.595Z,21.75
2024-05-09T10:51:03.388Z,21.85
2024-05-09T10:52:07.367Z,19.63
2024-05-09T10:53:09.471Z,19.25
2024-05-09T10:54:11.688Z,19.01
2024-05-09T10:55:14.080Z,19.86
2024-05-09T10:56:17.334Z,20.56
2024-05-09T10:57:20.799Z,19.12
2024-05-09T10:58:23.261Z,20.01
2024-05-09T10:59:34.436Z,20.08
2024-05-09T11:00:37.687Z,19.06
2024-05-09T11:01:40.423Z,20.23
2024-05-09T11:02:43.235Z,20.78
2024-05-09T11:03:49.030Z,20.53
2024-05-09T11:04:51.866Z,20.17
2024-05-09T11:05:54.507Z,19.43
2024-05-09T11:06:57.144Z,20.24
2024-05-09T11:07:59.252Z,20.29
2024-05-09T11:09:01.410Z,19.41
2024-05-09T11:10:04.938Z,19.94
2024-05-09T11:11:09.390Z,19.60
2024-05-09T11:12:11.849Z,19.77
2024-05-09T11:13:14.103Z,19.70
2024-05-09T11:14:16.307Z,22.17
2024-05-09T11:15:18.598Z,22.83
2024-05-09T11:16:21.450Z,22.80
2024-05-09T11:17:23.860Z,23.39
2024-05-09T11:18:30.792Z,24.12
2024-05-09T11:19:38.692Z,25.57
2024-05-09T11:20:40.965Z,24.75
2024-05-09T11:21:50.406Z,24.96
2024-05-09T11:22:52.545Z,24.61
2024-05-09T11:23:55.998Z,25.08
2024-05-09T11:24:58.474Z,25.84
2024-05-09T11:26:00.714Z,26.72
2024-05-09T11:27:04.150Z,27.17
2024-05-09T11:28:06.437Z,27.28
2024-05-09T11:29:08.539Z,27.09
2024-05-09T11:30:24.247Z,26.24
2024-05-09T11:31:46.754Z,26.42
2024-05-09T11:32:49.053Z,27.60
2024-05-09T11:33:53.899Z,27.84
2024-05-09T11:34:56.094Z,27.31
2024-05-09T11:35:58.254Z,27.69
2024-05-09T11:37:00.505Z,26.77
2024-05-09T11:38:03.355Z,27.20
2024-05-09T11:39:06.010Z,27.23
2024-05-09T11:40:13.915Z,28.31
2024-05-09T11:41:23.343Z,28.11
2024-05-09T11:42:25.445Z,28.69
2024-05-09T11:43:27.731Z,28.36
2024-05-09T11:44:29.827Z,27.09
2024-05-09T11:45:32.414Z,26.13
2024-05-09T11:46:34.542Z,25.67
2024-05-09T11:47:38.599Z,24.68
2024-05-09T11:48:40.973Z,25.75
2024-05-09T11:49:43.180Z,27.13
2024-05-09T11:50:45.343Z,26.09
2024-05-09T11:51:47.486Z,26.59
2024-05-09T11:52:49.632Z,26.08
2024-05-09T11:53:51.746Z,26.75
2024-05-09T11:54:53.925Z,28.93
2024-05-09T11:55:57.452Z,28.84
2024-05-09T11:56:59.838Z,29.37
2024-05-09T11:58:02.537Z,31.28
2024-05-09T11:59:04.675Z,30.72
2024-05-09T12:00:11.880Z,29.18
2024-05-09T12:01:18.731Z,28.54
2024-05-09T12:02:20.933Z,29.36
2024-05-09T12:03:23.218Z,28.34
2024-05-09T12:04:25.498Z,28.31
2024-05-09T12:05:29.100Z,30.15
2024-05-09T12:06:31.353Z,30.10
2024-05-09T12:07:33.473Z,29.95
2024-05-09T12:08:35.628Z,29.47
2024-05-09T12:09:37.772Z,29.97
2024-05-09T12:10:40.103Z,28.42
2024-05-09T12:11:42.666Z,28.35
2024-05-09T12:12:44.936Z,29.97
2024-05-09T12:13:47.129Z,27.44
2024-05-09T12:14:49.256Z,28.24
2024-05-09T12:15:51.443Z,27.79
2024-05-09T12:16:53.619Z,28.44
2024-05-09T12:17:58.160Z,29.54
2024-05-09T12:19:02.142Z,30.31
2024-05-09T12:21:07.739Z,29.57
2024-05-09T12:22:10.155Z,28.86
2024-05-09T12:23:12.370Z,30.06
2024-05-09T12:24:17.709Z,30.43
2024-05-09T12:25:20.541Z,30.44
2024-05-09T12:26:22.751Z,30.33
2024-05-09T12:27:24.882Z,31.20
2024-05-09T12:28:27.029Z,29.11
2024-05-09T12:29:29.139Z,28.65
2024-05-09T12:30:36.994Z,27.90
2024-05-09T12:31:41.824Z,27.10
2024-05-09T12:32:45.029Z,28.76
2024-05-09T12:33:47.328Z,28.54
2024-05-09T12:34:49.523Z,27.35
2024-05-09T12:35:51.708Z,28.10
2024-05-09T12:36:53.996Z,29.14
2024-05-09T12:37:56.176Z,30.13
2024-05-09T12:38:58.310Z,29.58
2024-05-09T12:40:00.516Z,29.26
2024-05-09T12:41:02.681Z,30.80
2024-05-09T12:42:04.826Z,30.81
2024-05-09T12:43:07.924Z,30.78
2024-05-09T12:44:10.872Z,31.15
2024-05-09T12:45:13.025Z,30.47
2024-05-09T12:46:15.174Z,30.04
2024-05-09T12:47:17.394Z,30.11
2024-05-09T12:48:19.659Z,29.53
2024-05-09T12:49:23.251Z,28.00
2024-05-09T12:50:32.003Z,29.07
2024-05-09T12:51:36.273Z,29.45
2024-05-09T12:52:38.431Z,28.89
2024-05-09T12:53:40.558Z,29.86
2024-05-09T12:54:42.749Z,29.79
2024-05-09T12:55:53.365Z,30.25
2024-05-09T12:56:59.419Z,30.83
2024-05-09T12:58:01.597Z,30.90
2024-05-09T12:59:03.718Z,31.88
2024-05-09T13:00:09.352Z,31.01
2024-05-09T13:01:13.803Z,31.02
2024-05-09T13:02:16.135Z,31.45
2024-05-09T13:03:18.538Z,29.19
2024-05-09T13:04:20.890Z,28.44
2024-05-09T13:05:23.384Z,29.41
2024-05-09T13:06:25.592Z,30.31
2024-05-09T13:07:41.769Z,30.89
2024-05-09T13:08:43.891Z,30.60
2024-05-09T13:09:46.059Z,29.13
2024-05-09T13:10:49.101Z,28.77
2024-05-09T13:11:51.554Z,30.73
2024-05-09T13:12:54.164Z,29.43
2024-05-09T13:13:56.310Z,29.13
2024-05-09T13:14:58.459Z,30.79
2024-05-09T13:16:00.738Z,30.58
2024-05-09T13:17:03.023Z,30.69
2024-05-09T13:18:05.695Z,30.94
2024-05-09T13:19:07.805Z,30.98
2024-05-09T13:20:18.543Z,29.52
2024-05-09T13:21:25.527Z,30.15
2024-05-09T13:22:27.759Z,30.70
2024-05-09T13:23:29.818Z,29.99
2024-05-09T13:24:31.897Z,29.48
2024-05-09T13:25:33.985Z,29.92
2024-05-09T13:26:36.068Z,29.90
2024-05-09T13:27:38.140Z,29.65
2024-05-09T13:28:40.229Z,29.26
2024-05-09T13:29:44.326Z,28.74
2024-05-09T13:30:46.788Z,29.16
2024-05-09T13:31:48.858Z,29.51
2024-05-09T13:32:51.119Z,29.63
2024-05-09T13:33:53.340Z,29.18
2024-05-09T13:34:56.083Z,28.62
2024-05-09T13:35:58.171Z,28.72
2024-05-09T13:37:00.299Z,29.15
2024-05-09T13:38:02.620Z,30.27
2024-05-09T13:39:04.688Z,29.54
2024-05-09T13:40:07.462Z,28.39
2024-05-09T13:41:10.482Z,28.35
2024-05-09T13:42:12.542Z,27.62
2024-05-09T13:43:14.772Z,26.90